Capitol Logistics 248


KPVD
Theodore Francis Green State Airport
Providence, Rhode Island, US
KMIA
Miami International Airport
Miami, Florida, US

Route Details

Aircraft Information
Primary: Boeing 767-300BDSF
Backup: Not Available
Route Data
Distance: 1351nm
Sched. Duration: 3h 14m
Avg. Duration: 2h 79m (-36m)
Times Flown: 4
Recm'd Route: JUMPR RIFLE J174 SWL CEBEE WETRO DIW AR22 JORAY HILEY7
Planned Altitude: 36,000ft
Origin Wx: KPVD 200251Z 00000KT 10SM BKN250 11/09 A3033 RMK AO2 SLP269 T01060094 58006
Dest. Wx: KMIA 200253Z 07010G14KT 10SM SCT028 BKN049 OVC180 27/24 A2994 RMK AO2 LTG DSNT N RAB14E25 SLP140 CB DSNT N MOV W P0001 60001 T02720239 53005
Notes:

Financial History
Total Freight: 342,943lbs
Average Load: 85,736lbs/flt
Fuel Used: 119,364lbs
Avg. Fuel Used: 29,841lbs/flt
Fuel Expense: $113,396
Avg. Fuel Expense: $28,349
Avg. Fuel Cost: $0.95/lbs
Total Gross Income: $483,005
Pilot Pay: $806
Total Expenses: $52,373
Total Revenue: $314,606
Average Revenue: $120,751.25